createdAt,value
2018-09-22T00:00:28.183Z,90.80
2018-09-22T00:02:32.999Z,90.90
2018-09-22T00:04:37.762Z,91.10
2018-09-22T00:06:42.579Z,91.20
2018-09-22T00:08:47.322Z,91.30
2018-09-22T00:10:52.032Z,91.10
2018-09-22T00:12:56.805Z,91.20
2018-09-22T00:15:01.479Z,91.10
2018-09-22T00:17:06.393Z,91.40
2018-09-22T00:19:11.233Z,91.50
2018-09-22T00:21:15.954Z,91.60
2018-09-22T00:23:20.618Z,91.60
2018-09-22T00:25:25.288Z,91.60
2018-09-22T00:27:30.053Z,91.50
2018-09-22T00:29:34.766Z,91.50
2018-09-22T00:31:39.525Z,91.50
2018-09-22T00:33:44.239Z,91.50
2018-09-22T00:35:49.095Z,91.60
2018-09-22T00:37:54.050Z,91.50
2018-09-22T00:40:04.860Z,91.70
2018-09-22T00:42:09.668Z,91.80
2018-09-22T00:44:14.457Z,91.90
2018-09-22T00:46:19.191Z,92.10
2018-09-22T00:48:24.018Z,92.20
2018-09-22T00:50:28.793Z,92.70
2018-09-22T00:52:33.582Z,92.60
2018-09-22T00:54:38.530Z,92.70
2018-09-22T00:56:43.326Z,92.80
2018-09-22T00:58:48.154Z,93.00
2018-09-22T01:00:52.966Z,93.10
2018-09-22T01:02:57.623Z,93.10
2018-09-22T01:05:02.518Z,93.30
2018-09-22T01:07:07.349Z,93.30
2018-09-22T01:09:12.165Z,93.60
2018-09-22T01:11:16.854Z,93.70
2018-09-22T01:13:21.746Z,93.70
2018-09-22T01:15:26.469Z,93.90
2018-09-22T01:17:31.217Z,94.20
2018-09-22T01:19:35.907Z,94.40
2018-09-22T01:21:40.746Z,94.30
2018-09-22T01:23:45.554Z,94.50
2018-09-22T01:25:50.358Z,94.40
2018-09-22T01:27:55.202Z,94.40
2018-09-22T01:29:59.933Z,94.40
2018-09-22T01:32:04.864Z,94.20
2018-09-22T01:34:09.654Z,94.80
2018-09-22T01:36:14.427Z,94.70
2018-09-22T01:38:19.215Z,94.50
2018-09-22T01:40:24.199Z,94.50
2018-09-22T01:42:29.010Z,94.50
2018-09-22T01:44:33.677Z,94.50
2018-09-22T01:46:38.453Z,94.60
2018-09-22T01:48:43.130Z,95.00
2018-09-22T01:50:47.812Z,94.80
2018-09-22T01:52:52.659Z,94.40
2018-09-22T01:54:57.403Z,94.80
2018-09-22T01:57:02.105Z,95.00
2018-09-22T01:59:06.813Z,95.10
2018-09-22T02:01:11.615Z,94.90
2018-09-22T02:03:16.368Z,95.10
2018-09-22T02:05:21.270Z,95.00
2018-09-22T02:07:25.976Z,95.30
2018-09-22T02:09:30.749Z,95.40
2018-09-22T02:11:35.521Z,95.60
2018-09-22T02:13:40.339Z,95.60
2018-09-22T02:15:45.390Z,95.40
2018-09-22T02:17:50.098Z,95.40
2018-09-22T02:19:54.790Z,95.60
2018-09-22T02:21:59.637Z,95.60
2018-09-22T02:24:04.285Z,95.40
2018-09-22T02:26:09.207Z,95.30
2018-09-22T02:28:14.021Z,95.10
2018-09-22T02:30:18.895Z,95.20
2018-09-22T02:32:23.830Z,95.40
2018-09-22T02:34:28.644Z,95.80
2018-09-22T02:36:33.460Z,95.80
2018-09-22T02:38:38.170Z,95.90
2018-09-22T02:40:42.931Z,95.90
2018-09-22T02:42:47.589Z,95.90
2018-09-22T02:44:52.378Z,95.80
2018-09-22T02:46:57.118Z,95.90
2018-09-22T02:49:01.897Z,95.80
2018-09-22T02:51:07.519Z,95.80
2018-09-22T02:53:12.502Z,95.90
2018-09-22T02:55:17.231Z,95.90
2018-09-22T02:57:22.034Z,95.90
2018-09-22T02:59:26.868Z,96.20
2018-09-22T03:01:31.642Z,96.20
2018-09-22T03:03:36.502Z,96.40
2018-09-22T03:05:41.558Z,96.40
2018-09-22T03:07:46.286Z,96.60
2018-09-22T03:09:51.189Z,96.90
2018-09-22T03:11:56.103Z,96.60
2018-09-22T03:14:00.894Z,96.60
2018-09-22T03:16:05.830Z,96.60
2018-09-22T03:18:10.765Z,96.80
2018-09-22T03:20:15.511Z,97.10
2018-09-22T03:22:20.143Z,97.10
2018-09-22T03:24:25.095Z,97.40
2018-09-22T03:26:29.998Z,97.20
2018-09-22T03:28:34.652Z,96.90
2018-09-22T03:30:39.379Z,97.10
2018-09-22T03:34:46.397Z,97.50
2018-09-22T03:36:51.345Z,97.30
2018-09-22T03:38:56.083Z,97.00
2018-09-22T03:41:01.145Z,96.70
2018-09-22T03:43:06.123Z,96.70
2018-09-22T03:45:10.866Z,97.00
2018-09-22T03:47:15.544Z,96.90
2018-09-22T03:49:20.399Z,97.00
2018-09-22T03:51:25.137Z,97.20
2018-09-22T03:53:30.602Z,97.20
2018-09-22T03:55:35.315Z,96.90
2018-09-22T03:57:40.078Z,97.00
2018-09-22T03:59:45.004Z,96.80
2018-09-22T04:01:49.838Z,96.60
2018-09-22T04:03:54.565Z,96.30
2018-09-22T04:05:59.439Z,96.20
2018-09-22T04:08:04.871Z,96.30
2018-09-22T04:10:09.571Z,96.00
2018-09-22T04:12:14.357Z,96.10
2018-09-22T04:14:19.061Z,96.20
2018-09-22T04:16:23.784Z,96.20
2018-09-22T04:18:28.495Z,96.30
2018-09-22T04:20:33.201Z,96.20
2018-09-22T04:22:37.920Z,95.90
2018-09-22T04:24:42.637Z,95.80
2018-09-22T04:26:48.814Z,95.90
2018-09-22T04:28:53.523Z,95.90
2018-09-22T04:30:58.450Z,96.10
2018-09-22T04:33:03.331Z,96.00
2018-09-22T04:35:08.182Z,96.20
2018-09-22T04:37:13.146Z,96.00
2018-09-22T04:39:18.018Z,96.00
2018-09-22T04:41:22.911Z,95.90
2018-09-22T04:43:27.646Z,95.80
2018-09-22T04:45:32.542Z,95.80
2018-09-22T04:47:37.254Z,95.80
2018-09-22T04:49:42.060Z,95.70
2018-09-22T04:51:46.802Z,95.70
2018-09-22T04:53:51.749Z,96.00
2018-09-22T04:55:56.574Z,95.90
2018-09-22T04:58:01.404Z,95.90
2018-09-22T05:00:06.938Z,95.80
2018-09-22T05:02:11.753Z,96.10
2018-09-22T05:04:16.607Z,96.40
2018-09-22T05:06:21.596Z,96.40
2018-09-22T05:08:26.340Z,96.20
2018-09-22T05:10:31.158Z,96.50
2018-09-22T05:12:36.087Z,96.60
2018-09-22T05:14:40.861Z,96.60
2018-09-22T05:16:45.848Z,96.40
2018-09-22T05:18:50.643Z,96.40
2018-09-22T05:20:55.522Z,96.30
2018-09-22T05:23:01.461Z,96.30
2018-09-22T05:25:06.524Z,96.50
2018-09-22T05:27:11.427Z,96.70
2018-09-22T05:29:17.283Z,97.30
2018-09-22T05:31:22.235Z,96.90
2018-09-22T05:33:27.161Z,97.20
2018-09-22T05:35:31.936Z,97.00
2018-09-22T05:37:36.706Z,97.10
2018-09-22T05:39:41.499Z,97.10
2018-09-22T05:41:47.295Z,96.90
2018-09-22T05:43:52.216Z,97.20
2018-09-22T05:45:58.110Z,97.00
2018-09-22T05:48:03.031Z,97.30
2018-09-22T05:50:07.927Z,97.40
2018-09-22T05:52:12.995Z,97.70
2018-09-22T05:54:18.033Z,97.30
2018-09-22T05:56:22.903Z,97.40
2018-09-22T05:58:27.691Z,97.50
2018-09-22T06:00:36.808Z,97.60
2018-09-22T06:02:42.047Z,97.50
2018-09-22T06:04:46.999Z,97.30
2018-09-22T06:06:52.710Z,97.30
2018-09-22T06:08:57.486Z,97.30
2018-09-22T06:11:03.073Z,97.40
2018-09-22T06:13:08.107Z,97.30
2018-09-22T06:15:13.251Z,97.00
2018-09-22T06:17:18.116Z,97.20
2018-09-22T06:19:23.490Z,97.40
2018-09-22T06:21:28.609Z,97.60
2018-09-22T06:23:33.625Z,97.60
2018-09-22T06:25:38.988Z,97.40
2018-09-22T06:27:44.007Z,97.30
2018-09-22T06:29:49.020Z,97.40
2018-09-22T06:31:53.940Z,97.20
2018-09-22T06:33:58.669Z,97.30
2018-09-22T06:36:04.793Z,97.50
2018-09-22T06:38:10.765Z,97.30
2018-09-22T06:40:15.884Z,97.30
2018-09-22T06:42:21.060Z,97.40
2018-09-22T06:44:29.448Z,97.40
2018-09-22T06:46:34.540Z,97.40
2018-09-22T06:48:39.411Z,97.40
2018-09-22T06:50:44.325Z,97.20
2018-09-22T06:52:49.397Z,97.10
2018-09-22T06:54:54.328Z,97.10
2018-09-22T06:57:00.908Z,96.90
2018-09-22T06:59:06.232Z,96.90
2018-09-22T07:01:11.258Z,97.00
2018-09-22T07:03:16.174Z,97.10
2018-09-22T07:05:21.132Z,97.20
2018-09-22T07:07:26.053Z,96.90
2018-09-22T07:09:30.921Z,97.00
2018-09-22T07:11:35.790Z,96.40
2018-09-22T07:13:40.860Z,96.70
2018-09-22T07:15:45.620Z,96.80
2018-09-22T07:17:50.408Z,96.50
2018-09-22T07:19:55.234Z,96.50
2018-09-22T07:22:05.314Z,96.50
2018-09-22T07:24:10.268Z,97.00
2018-09-22T07:26:15.132Z,96.60
2018-09-22T07:28:20.213Z,96.30
2018-09-22T07:30:25.095Z,96.40
2018-09-22T07:32:30.172Z,96.40
2018-09-22T07:34:34.924Z,96.40
2018-09-22T07:36:40.248Z,96.40
2018-09-22T07:38:45.160Z,96.40
2018-09-22T07:40:50.246Z,96.50
2018-09-22T07:42:55.030Z,96.30
2018-09-22T07:45:00.650Z,96.20
2018-09-22T07:47:05.605Z,96.00
2018-09-22T07:49:10.600Z,96.00
2018-09-22T07:51:15.444Z,95.70
2018-09-22T07:53:20.394Z,96.00
2018-09-22T07:55:25.228Z,95.90
2018-09-22T07:57:30.422Z,95.60
2018-09-22T07:59:35.559Z,95.60
2018-09-22T08:01:40.564Z,95.40
2018-09-22T08:03:46.109Z,95.30
2018-09-22T08:05:51.042Z,95.40
2018-09-22T08:07:55.972Z,94.50
2018-09-22T08:10:00.793Z,94.70
2018-09-22T08:12:05.707Z,94.70
2018-09-22T08:14:10.717Z,94.80
2018-09-22T08:16:15.563Z,94.80
2018-09-22T08:18:20.529Z,95.00
2018-09-22T08:20:25.365Z,95.40
2018-09-22T08:22:30.345Z,95.20
2018-09-22T08:24:35.074Z,95.50
2018-09-22T08:26:40.230Z,95.60
2018-09-22T08:28:45.387Z,95.50
2018-09-22T08:30:50.372Z,95.90
2018-09-22T08:32:55.151Z,96.20
2018-09-22T08:34:59.934Z,96.20
2018-09-22T08:37:05.124Z,95.50
2018-09-22T08:39:11.707Z,95.10
2018-09-22T08:41:16.492Z,95.70
2018-09-22T08:43:21.434Z,95.50
2018-09-22T08:45:26.393Z,95.70
2018-09-22T08:47:31.779Z,95.50
2018-09-22T08:49:36.887Z,94.90
2018-09-22T08:51:41.620Z,95.20
2018-09-22T08:53:46.397Z,95.20
2018-09-22T08:55:51.239Z,95.10
2018-09-22T08:57:56.095Z,94.70
2018-09-22T09:00:00.793Z,94.20
2018-09-22T09:02:05.612Z,94.20
2018-09-22T09:04:10.425Z,94.40
2018-09-22T09:06:15.318Z,94.70
2018-09-22T09:08:20.273Z,94.60
2018-09-22T09:10:25.200Z,93.80
2018-09-22T09:12:30.124Z,94.00
2018-09-22T09:14:35.027Z,94.30
2018-09-22T09:16:39.802Z,93.80
2018-09-22T09:18:44.595Z,93.80
2018-09-22T09:20:49.394Z,93.10
2018-09-22T09:22:54.181Z,93.00
2018-09-22T09:24:59.146Z,92.90
2018-09-22T09:27:04.161Z,93.10
2018-09-22T09:29:08.930Z,92.50
2018-09-22T09:31:13.734Z,92.10
2018-09-22T09:33:18.779Z,92.10
2018-09-22T09:35:23.589Z,92.30
2018-09-22T09:37:28.613Z,92.00
2018-09-22T09:39:33.422Z,91.80
2018-09-22T09:41:38.129Z,91.70
2018-09-22T09:43:43.034Z,91.10
2018-09-22T09:45:47.802Z,90.90
2018-09-22T09:47:52.643Z,90.10
2018-09-22T09:49:57.687Z,90.50
2018-09-22T09:52:02.480Z,90.30
2018-09-22T09:54:08.005Z,90.10
2018-09-22T09:56:12.836Z,87.00
2018-09-22T09:58:17.749Z,88.00
2018-09-22T10:00:27.687Z,88.10
2018-09-22T10:02:32.418Z,88.00
2018-09-22T10:04:37.306Z,88.20
2018-09-22T10:06:42.143Z,87.90
2018-09-22T10:08:46.925Z,87.80
2018-09-22T10:10:51.739Z,87.40
2018-09-22T10:12:56.593Z,88.10
2018-09-22T10:15:01.738Z,86.20
2018-09-22T10:17:06.570Z,84.40
2018-09-22T10:19:11.403Z,82.70
2018-09-22T10:21:16.124Z,83.40
2018-09-22T10:23:21.009Z,85.40
2018-09-22T10:25:26.068Z,86.10
2018-09-22T10:27:30.849Z,85.60
2018-09-22T10:29:35.761Z,85.70
2018-09-22T10:31:40.688Z,85.60
2018-09-22T10:33:45.618Z,86.90
2018-09-22T10:35:50.492Z,86.20
2018-09-22T10:37:55.425Z,87.20
2018-09-22T10:40:00.373Z,87.40
2018-09-22T10:42:05.554Z,86.80
2018-09-22T10:44:10.364Z,86.30
2018-09-22T10:46:15.225Z,86.00
2018-09-22T10:48:19.989Z,86.20
2018-09-22T10:50:24.914Z,85.10
2018-09-22T10:52:29.795Z,83.70
2018-09-22T10:54:34.594Z,83.80
2018-09-22T10:56:39.403Z,83.90
2018-09-22T10:58:44.323Z,84.80
2018-09-22T11:00:49.185Z,86.00
2018-09-22T11:02:54.276Z,84.90
2018-09-22T11:04:59.190Z,85.20
2018-09-22T11:07:04.176Z,84.80
2018-09-22T11:09:09.055Z,84.30
2018-09-22T11:11:13.963Z,84.20
2018-09-22T11:13:18.800Z,84.90
2018-09-22T11:15:24.012Z,84.80
2018-09-22T11:17:29.154Z,84.50
2018-09-22T11:19:33.957Z,84.50
2018-09-22T11:21:38.734Z,84.50
2018-09-22T11:23:43.527Z,85.00
2018-09-22T11:25:48.850Z,86.30
2018-09-22T11:27:53.652Z,86.40
2018-09-22T11:29:58.552Z,86.40
2018-09-22T11:32:03.432Z,84.20
2018-09-22T11:34:08.474Z,84.40
2018-09-22T11:36:13.269Z,84.60
2018-09-22T11:38:18.352Z,84.60
2018-09-22T11:40:23.285Z,84.30
2018-09-22T11:42:28.019Z,84.00
2018-09-22T11:44:32.825Z,83.70
2018-09-22T11:46:37.754Z,84.00
2018-09-22T11:48:42.773Z,84.00
2018-09-22T11:50:48.050Z,84.30
2018-09-22T11:52:53.029Z,84.50
2018-09-22T11:54:59.200Z,83.60
2018-09-22T11:57:04.384Z,83.40
2018-09-22T11:59:09.191Z,83.50
2018-09-22T12:01:15.506Z,84.10
2018-09-22T12:03:20.395Z,84.80
2018-09-22T12:05:25.299Z,84.90
2018-09-22T12:07:30.163Z,84.50
2018-09-22T12:09:35.063Z,86.00
2018-09-22T12:11:40.608Z,84.00
2018-09-22T12:13:45.701Z,84.70
2018-09-22T12:15:50.633Z,85.50
2018-09-22T12:17:57.640Z,84.50
2018-09-22T12:20:02.408Z,85.10
2018-09-22T12:22:07.189Z,84.50
2018-09-22T12:24:11.863Z,84.20
2018-09-22T12:26:16.598Z,85.40
2018-09-22T12:28:21.392Z,87.10
2018-09-22T12:30:26.092Z,86.90
2018-09-22T12:32:30.769Z,87.20
2018-09-22T12:34:35.410Z,87.80
2018-09-22T12:36:40.200Z,88.60
2018-09-22T12:38:45.058Z,88.80
2018-09-22T12:40:49.959Z,88.10
2018-09-22T12:42:54.869Z,88.60
2018-09-22T12:44:59.890Z,87.70
2018-09-22T12:47:04.881Z,88.50
2018-09-22T12:49:09.829Z,86.90
2018-09-22T12:51:14.495Z,86.40
2018-09-22T12:53:19.314Z,86.70
2018-09-22T12:55:24.323Z,85.40
2018-09-22T12:57:29.321Z,84.70
2018-09-22T12:59:34.427Z,84.70
2018-09-22T13:01:39.314Z,85.60
2018-09-22T13:03:44.395Z,84.40
2018-09-22T13:05:49.282Z,85.10
2018-09-22T13:07:54.117Z,85.20
2018-09-22T13:09:58.969Z,83.50
2018-09-22T13:12:03.804Z,83.50
2018-09-22T13:14:08.639Z,83.30
2018-09-22T13:16:13.391Z,83.30
2018-09-22T13:18:18.223Z,83.70
2018-09-22T13:20:23.201Z,83.90
2018-09-22T13:22:28.034Z,84.70
2018-09-22T13:24:32.906Z,86.30
2018-09-22T13:26:37.904Z,88.10
2018-09-22T13:28:42.717Z,90.10
2018-09-22T13:30:47.578Z,91.10
2018-09-22T13:32:52.335Z,92.00
2018-09-22T13:34:58.175Z,92.50
2018-09-22T13:37:03.099Z,93.00
2018-09-22T13:39:12.124Z,93.50
2018-09-22T13:41:17.106Z,94.00
2018-09-22T13:43:22.102Z,94.70
2018-09-22T13:45:27.026Z,94.10
2018-09-22T13:47:31.804Z,94.10
2018-09-22T13:49:36.695Z,93.50
2018-09-22T13:51:41.572Z,93.50
2018-09-22T13:53:46.524Z,93.70
2018-09-22T13:55:52.181Z,94.30
2018-09-22T13:57:57.163Z,93.50
2018-09-22T14:00:02.282Z,94.40
2018-09-22T14:02:07.124Z,94.10
2018-09-22T14:04:11.939Z,94.20
2018-09-22T14:06:16.918Z,94.10
2018-09-22T14:08:21.794Z,94.40
2018-09-22T14:10:26.750Z,94.80
2018-09-22T14:12:31.618Z,94.80
2018-09-22T14:14:36.337Z,94.90
2018-09-22T14:16:41.149Z,94.50
2018-09-22T14:18:46.295Z,94.40
2018-09-22T14:20:51.060Z,94.90
2018-09-22T14:22:55.801Z,95.10
2018-09-22T14:25:00.676Z,95.40
2018-09-22T14:27:05.736Z,95.80
2018-09-22T14:29:10.472Z,95.20
2018-09-22T14:31:15.460Z,95.20
2018-09-22T14:33:20.382Z,95.30
2018-09-22T14:35:25.059Z,95.40
2018-09-22T14:37:29.971Z,95.20
2018-09-22T14:39:34.853Z,94.70
2018-09-22T14:41:39.725Z,94.50
2018-09-22T14:43:44.592Z,94.90
2018-09-22T14:45:50.364Z,95.10
2018-09-22T14:47:55.205Z,95.00
2018-09-22T14:50:00.018Z,94.50
2018-09-22T14:52:05.135Z,95.10
2018-09-22T14:54:10.141Z,95.20
2018-09-22T14:56:15.086Z,95.40
2018-09-22T14:58:20.222Z,95.30
2018-09-22T15:00:25.243Z,95.10
2018-09-22T15:02:30.159Z,95.60
2018-09-22T15:04:35.079Z,95.60
2018-09-22T15:06:41.002Z,96.00
2018-09-22T15:08:46.370Z,95.60
2018-09-22T15:10:51.422Z,96.10
2018-09-22T15:12:56.472Z,95.50
2018-09-22T15:15:01.582Z,96.00
2018-09-22T15:17:06.670Z,96.70
2018-09-22T15:19:11.615Z,97.10
2018-09-22T15:21:16.680Z,96.70
2018-09-22T15:23:21.962Z,96.70
2018-09-22T15:25:27.067Z,97.00
2018-09-22T15:27:31.869Z,97.50
2018-09-22T15:29:36.701Z,97.90
2018-09-22T15:31:41.493Z,97.60
2018-09-22T15:33:46.535Z,97.60
2018-09-22T15:35:51.273Z,97.60
2018-09-22T15:37:56.229Z,97.60
2018-09-22T15:40:01.049Z,97.50
2018-09-22T15:42:06.048Z,97.90
2018-09-22T15:44:11.037Z,98.50
2018-09-22T15:46:15.945Z,98.80
2018-09-22T15:48:21.136Z,98.70
2018-09-22T15:50:26.134Z,98.90
2018-09-22T15:52:31.152Z,99.10
2018-09-22T15:54:36.217Z,99.00
2018-09-22T15:56:41.060Z,99.40
2018-09-22T15:58:45.888Z,99.90
2018-09-22T16:00:51.007Z,99.20
2018-09-22T16:02:56.075Z,99.70
2018-09-22T16:05:00.996Z,99.90
2018-09-22T16:07:06.110Z,99.30
2018-09-22T16:09:11.263Z,99.80
2018-09-22T16:11:16.793Z,99.60
2018-09-22T16:13:21.871Z,99.90
2018-09-22T16:15:26.961Z,99.90
2018-09-22T16:17:31.781Z,99.90
2018-09-22T16:19:36.818Z,99.90
2018-09-22T16:21:41.819Z,99.90
2018-09-22T16:23:46.950Z,99.90
2018-09-22T16:25:52.681Z,99.50
2018-09-22T16:27:58.819Z,99.40
2018-09-22T16:30:03.988Z,99.70
2018-09-22T16:32:09.197Z,99.50
2018-09-22T16:34:13.985Z,98.90
2018-09-22T16:36:19.323Z,98.50
2018-09-22T16:38:24.569Z,98.40
2018-09-22T16:40:29.343Z,98.10
2018-09-22T16:42:34.612Z,98.30
2018-09-22T16:44:39.503Z,98.50
2018-09-22T16:46:44.439Z,98.10
2018-09-22T16:48:49.536Z,98.00
2018-09-22T16:50:54.638Z,98.30
2018-09-22T16:52:59.489Z,98.80
2018-09-22T16:55:04.597Z,99.50
2018-09-22T16:57:09.800Z,99.60
2018-09-22T16:59:15.129Z,99.00
2018-09-22T17:01:20.120Z,99.20
2018-09-22T17:03:25.024Z,99.10
2018-09-22T17:05:30.512Z,99.60
2018-09-22T17:07:35.455Z,99.60
2018-09-22T17:09:40.494Z,99.90
2018-09-22T17:11:45.388Z,99.60
2018-09-22T17:13:50.572Z,99.90
2018-09-22T17:15:55.820Z,99.90
2018-09-22T17:18:00.811Z,99.90
2018-09-22T17:20:06.062Z,99.90
2018-09-22T17:22:11.020Z,99.90
2018-09-22T17:24:15.975Z,99.90
2018-09-22T17:26:21.020Z,99.90
2018-09-22T17:28:25.965Z,99.90
2018-09-22T17:30:30.810Z,99.90
2018-09-22T17:32:35.877Z,99.90
2018-09-22T17:34:40.887Z,99.90
2018-09-22T17:36:45.893Z,99.90
2018-09-22T17:38:50.857Z,99.90
2018-09-22T17:40:55.773Z,99.90
2018-09-22T17:43:00.888Z,99.90
2018-09-22T17:45:07.047Z,99.90
2018-09-22T17:47:12.102Z,99.90
2018-09-22T17:49:16.930Z,99.90
2018-09-22T17:51:21.769Z,99.90
2018-09-22T17:53:26.566Z,99.90
2018-09-22T17:55:31.661Z,99.90
2018-09-22T17:57:36.512Z,99.90
2018-09-22T17:59:41.501Z,99.90
2018-09-22T18:01:46.442Z,99.90
2018-09-22T18:03:51.277Z,99.90
2018-09-22T18:05:56.419Z,99.90
2018-09-22T18:08:01.496Z,99.90
2018-09-22T18:10:06.698Z,99.90
2018-09-22T18:12:11.830Z,99.90
2018-09-22T18:14:16.824Z,99.90
2018-09-22T18:16:21.701Z,99.90
2018-09-22T18:18:27.100Z,99.90
2018-09-22T18:20:32.051Z,99.90
2018-09-22T18:22:36.891Z,99.90
2018-09-22T18:24:42.014Z,99.90
2018-09-22T18:26:46.893Z,99.90
2018-09-22T18:28:51.705Z,99.90
2018-09-22T18:30:56.707Z,99.90
2018-09-22T18:33:01.732Z,99.90
2018-09-22T18:35:06.688Z,99.90
2018-09-22T18:37:12.118Z,99.90
2018-09-22T18:39:17.114Z,99.90
2018-09-22T18:41:22.095Z,99.90
2018-09-22T18:43:27.703Z,99.90
2018-09-22T18:45:33.216Z,99.90
2018-09-22T18:47:38.546Z,99.90
2018-09-22T18:49:43.676Z,99.90
2018-09-22T18:51:48.896Z,99.90
2018-09-22T18:53:54.311Z,99.90
2018-09-22T18:55:59.484Z,99.90
2018-09-22T18:58:04.911Z,99.90
2018-09-22T19:00:09.888Z,99.90
2018-09-22T19:02:15.046Z,99.90
2018-09-22T19:04:20.136Z,99.90
2018-09-22T19:06:25.170Z,99.90
2018-09-22T19:08:30.112Z,99.90
2018-09-22T19:10:35.235Z,99.90
2018-09-22T19:12:40.573Z,99.90
2018-09-22T19:14:51.854Z,99.90
2018-09-22T19:17:02.063Z,99.90
2018-09-22T19:19:12.737Z,99.90
2018-09-22T19:21:23.913Z,99.90
2018-09-22T19:23:38.761Z,99.90
2018-09-22T19:25:47.251Z,99.90
2018-09-22T19:27:58.546Z,99.90
2018-09-22T19:30:07.847Z,99.90
2018-09-22T19:32:16.978Z,99.90
2018-09-22T19:34:26.460Z,99.90
2018-09-22T19:36:35.606Z,99.90
2018-09-22T19:40:47.755Z,99.90
2018-09-22T19:43:13.086Z,99.90
2018-09-22T19:45:35.949Z,99.90
2018-09-22T19:47:47.106Z,99.90
2018-09-22T19:50:00.887Z,99.90
2018-09-22T19:52:11.613Z,99.90
2018-09-22T19:54:17.132Z,99.90
2018-09-22T19:56:22.334Z,99.90
2018-09-22T19:58:27.357Z,99.90
2018-09-22T20:00:36.200Z,99.90
2018-09-22T20:02:42.166Z,99.90
2018-09-22T20:04:47.132Z,99.90
2018-09-22T20:06:53.698Z,99.90
2018-09-22T20:08:59.758Z,99.90
2018-09-22T20:11:06.694Z,99.90
2018-09-22T20:13:16.497Z,99.90
2018-09-22T20:15:22.935Z,99.90
2018-09-22T20:17:28.229Z,99.90
2018-09-22T20:19:33.431Z,99.90
2018-09-22T20:21:38.638Z,99.90
2018-09-22T20:23:43.507Z,99.90
2018-09-22T20:25:48.876Z,99.90
2018-09-22T20:27:53.861Z,99.90
2018-09-22T20:29:58.851Z,99.90
2018-09-22T20:32:04.107Z,99.90
2018-09-22T20:34:09.063Z,99.90
2018-09-22T20:36:14.093Z,99.90
2018-09-22T20:38:19.031Z,99.90
2018-09-22T20:40:23.840Z,99.90
2018-09-22T20:42:50.222Z,99.90
2018-09-22T20:44:55.433Z,99.90
2018-09-22T20:47:00.574Z,99.90
2018-09-22T20:49:05.530Z,99.90
2018-09-22T20:51:10.443Z,99.90
2018-09-22T20:53:15.428Z,99.90
2018-09-22T20:55:21.477Z,99.90
2018-09-22T20:57:26.630Z,99.90
2018-09-22T20:59:31.603Z,99.90
2018-09-22T21:01:36.545Z,99.90
2018-09-22T21:03:41.221Z,99.90
2018-09-22T21:05:46.115Z,99.90
2018-09-22T21:07:51.011Z,99.90
2018-09-22T21:09:55.798Z,99.90
2018-09-22T21:12:00.623Z,99.90
2018-09-22T21:14:05.856Z,99.90
2018-09-22T21:16:10.779Z,99.90
2018-09-22T21:18:15.849Z,99.90
2018-09-22T21:20:20.645Z,99.90
2018-09-22T21:22:25.689Z,99.90
2018-09-22T21:24:30.840Z,99.90
2018-09-22T21:26:35.814Z,99.90
2018-09-22T21:28:40.679Z,99.90
2018-09-22T21:30:45.945Z,99.90
2018-09-22T21:32:50.557Z,99.90
2018-09-22T21:34:55.405Z,99.90
2018-09-22T21:37:00.328Z,99.90
2018-09-22T21:39:07.445Z,99.90
2018-09-22T21:41:12.294Z,99.90
2018-09-22T21:43:17.216Z,99.90
2018-09-22T21:45:22.064Z,99.90
2018-09-22T21:47:26.965Z,99.90
2018-09-22T21:49:32.154Z,99.90
2018-09-22T21:51:37.078Z,99.90
2018-09-22T21:53:42.034Z,99.90
2018-09-22T21:55:47.068Z,99.90
2018-09-22T21:57:51.921Z,99.90
2018-09-22T21:59:56.853Z,99.90
2018-09-22T22:02:01.698Z,99.90
2018-09-22T22:04:06.874Z,99.90
2018-09-22T22:06:11.753Z,99.90
2018-09-22T22:08:16.833Z,99.90
2018-09-22T22:10:21.837Z,99.90
2018-09-22T22:12:26.621Z,99.90
2018-09-22T22:14:31.450Z,99.90
2018-09-22T22:16:36.332Z,99.90
2018-09-22T22:18:41.063Z,99.90
2018-09-22T22:20:46.009Z,99.90
2018-09-22T22:22:50.880Z,99.90
2018-09-22T22:24:55.945Z,99.90
2018-09-22T22:27:01.179Z,99.90
2018-09-22T22:29:06.254Z,99.90
2018-09-22T22:31:11.240Z,99.90
2018-09-22T22:33:16.156Z,99.90
2018-09-22T22:35:21.108Z,99.90
2018-09-22T22:37:25.992Z,99.90
2018-09-22T22:39:31.922Z,99.90
2018-09-22T22:41:36.867Z,99.90
2018-09-22T22:43:41.958Z,99.90
2018-09-22T22:45:46.903Z,99.90
2018-09-22T22:47:52.108Z,99.90
2018-09-22T22:49:57.068Z,99.90
2018-09-22T22:52:01.991Z,99.90
2018-09-22T22:54:06.978Z,99.90
2018-09-22T22:56:11.889Z,99.90
2018-09-22T22:58:16.825Z,99.90
2018-09-22T23:00:21.578Z,99.90
2018-09-22T23:02:26.769Z,99.90
2018-09-22T23:04:31.605Z,99.90
2018-09-22T23:06:36.399Z,99.90
2018-09-22T23:08:41.376Z,99.90
2018-09-22T23:10:46.177Z,99.90
2018-09-22T23:12:51.493Z,99.90
2018-09-22T23:14:56.667Z,99.90
2018-09-22T23:17:01.619Z,99.90
2018-09-22T23:19:06.476Z,99.90
2018-09-22T23:21:11.326Z,99.90
2018-09-22T23:23:16.355Z,99.90
2018-09-22T23:25:21.126Z,99.90
2018-09-22T23:27:27.672Z,99.90
2018-09-22T23:29:32.452Z,99.90
2018-09-22T23:31:37.260Z,99.90
2018-09-22T23:33:42.178Z,99.90
2018-09-22T23:35:46.968Z,99.90
2018-09-22T23:37:51.792Z,99.90
2018-09-22T23:39:57.037Z,99.90
2018-09-22T23:42:01.851Z,99.90
2018-09-22T23:44:06.994Z,99.90
2018-09-22T23:46:11.818Z,99.90
2018-09-22T23:48:16.857Z,99.90
2018-09-22T23:50:22.222Z,99.90
2018-09-22T23:52:27.114Z,99.90
2018-09-22T23:54:32.038Z,99.90
2018-09-22T23:56:36.899Z,99.90
2018-09-22T23:58:41.774Z,99.90
